createdAt,value
2022-11-11T00:01:05.407Z,5.57
2022-11-11T00:03:33.111Z,5.07
2022-11-11T00:06:05.339Z,4.25
2022-11-11T00:08:32.578Z,4.55
2022-11-11T00:11:20.332Z,2.92
2022-11-11T00:13:46.827Z,5.35
2022-11-11T00:16:16.464Z,3.33
2022-11-11T00:19:03.095Z,5.85
2022-11-11T00:21:49.166Z,4.70
2022-11-11T00:24:44.811Z,5.03
2022-11-11T00:27:12.651Z,5.47
2022-11-11T00:29:39.680Z,3.72
2022-11-11T00:32:23.485Z,7.30
2022-11-11T00:37:36.601Z,5.50
2022-11-11T00:40:03.548Z,3.60
2022-11-11T00:42:30.126Z,4.95
2022-11-11T00:44:56.692Z,4.57
2022-11-11T00:47:42.137Z,5.47
2022-11-11T00:50:36.220Z,3.70
2022-11-11T00:53:04.940Z,5.35
2022-11-11T00:55:31.906Z,3.65
2022-11-11T00:57:58.535Z,8.02
2022-11-11T01:00:25.179Z,6.18
2022-11-11T01:02:51.874Z,4.22
2022-11-11T01:05:18.548Z,2.78
2022-11-11T01:07:45.342Z,10.27
2022-11-11T01:10:12.126Z,5.07
2022-11-11T01:12:38.920Z,6.65
2022-11-11T01:15:06.095Z,4.30
2022-11-11T01:17:32.628Z,8.30
2022-11-11T01:19:59.223Z,6.22
2022-11-11T01:22:25.894Z,5.07
2022-11-11T01:24:52.428Z,8.85
2022-11-11T01:27:19.017Z,6.78
2022-11-11T01:29:45.775Z,12.05
2022-11-11T01:32:12.323Z,5.63
2022-11-11T01:34:38.866Z,3.47
2022-11-11T01:37:05.527Z,3.92
2022-11-11T01:39:32.048Z,4.32
2022-11-11T01:42:01.881Z,5.45
2022-11-11T01:44:47.489Z,8.75
2022-11-11T01:47:14.254Z,8.45
2022-11-11T01:49:56.197Z,6.43
2022-11-11T01:52:25.762Z,8.48
2022-11-11T01:55:01.523Z,4.78
2022-11-11T01:58:10.100Z,3.47
2022-11-11T02:00:36.631Z,5.70
2022-11-11T02:03:10.791Z,5.72
2022-11-11T02:05:43.819Z,4.00
2022-11-11T02:08:32.516Z,5.57
2022-11-11T02:11:07.265Z,3.70
2022-11-11T02:13:57.187Z,3.92
2022-11-11T02:16:24.443Z,5.47
2022-11-11T02:18:51.454Z,5.40
2022-11-11T02:21:35.747Z,4.18
2022-11-11T02:24:07.503Z,3.30
2022-11-11T02:26:36.552Z,6.07
2022-11-11T02:29:08.520Z,3.55
2022-11-11T02:31:35.287Z,5.13
2022-11-11T02:34:01.812Z,5.18
2022-11-11T02:36:28.616Z,4.25
2022-11-11T02:38:55.277Z,5.43
2022-11-11T02:41:40.130Z,4.68
2022-11-11T02:44:06.794Z,4.75
2022-11-11T02:46:33.529Z,5.00
2022-11-11T02:49:00.262Z,5.97
2022-11-11T02:51:26.846Z,3.15
2022-11-11T02:53:58.938Z,6.65
2022-11-11T02:56:44.970Z,5.60
2022-11-11T02:59:11.816Z,2.10
2022-11-11T03:01:38.702Z,3.75
2022-11-11T03:04:05.768Z,3.25
2022-11-11T03:06:32.374Z,4.43
2022-11-11T03:08:59.049Z,2.72
2022-11-11T03:11:29.012Z,2.70
2022-11-11T03:13:59.611Z,3.63
2022-11-11T03:17:03.025Z,2.72
2022-11-11T03:19:29.710Z,4.60
2022-11-11T03:22:53.271Z,2.03
2022-11-11T03:25:01.007Z,1.95
2022-11-11T03:27:27.504Z,2.78
2022-11-11T03:29:54.028Z,2.00
2022-11-11T03:32:20.542Z,1.70
2022-11-11T03:34:47.036Z,2.25
2022-11-11T03:37:32.443Z,2.53
2022-11-11T03:39:58.934Z,3.30
2022-11-11T03:42:25.469Z,2.10
2022-11-11T03:44:51.954Z,3.08
2022-11-11T03:47:18.553Z,2.92
2022-11-11T03:49:45.881Z,1.30
2022-11-11T03:52:13.200Z,6.47
2022-11-11T03:54:39.949Z,2.30
2022-11-11T03:57:25.442Z,3.67
2022-11-11T03:59:51.970Z,1.52
2022-11-11T04:02:37.430Z,1.67
2022-11-11T04:05:22.430Z,2.47
2022-11-11T04:08:09.775Z,2.50
2022-11-11T04:10:36.992Z,2.10
2022-11-11T04:13:23.600Z,1.95
2022-11-11T04:16:08.537Z,2.40
2022-11-11T04:18:54.920Z,4.18
2022-11-11T04:21:41.103Z,1.30
2022-11-11T04:24:27.402Z,1.15
2022-11-11T04:26:55.734Z,1.85
2022-11-11T04:29:29.020Z,2.40
2022-11-11T04:32:16.430Z,3.03
2022-11-11T04:34:45.137Z,2.10
2022-11-11T04:37:12.008Z,3.05
2022-11-11T04:39:57.187Z,2.10
2022-11-11T04:42:24.327Z,2.05
2022-11-11T04:45:09.385Z,2.53
2022-11-11T04:47:36.063Z,1.65
2022-11-11T04:50:07.195Z,1.95
2022-11-11T04:52:34.395Z,1.42
2022-11-11T04:55:21.997Z,1.55
2022-11-11T04:57:48.958Z,1.45
2022-11-11T05:00:19.341Z,1.98
2022-11-11T05:03:04.372Z,1.83
2022-11-11T05:05:50.293Z,2.15
2022-11-11T05:08:35.374Z,1.77
2022-11-11T05:11:01.915Z,2.10
2022-11-11T05:13:46.990Z,2.47
2022-11-11T05:16:37.158Z,3.10
2022-11-11T05:19:22.734Z,1.95
2022-11-11T05:21:51.620Z,1.20
2022-11-11T05:24:36.889Z,2.63
2022-11-11T05:27:03.405Z,1.35
2022-11-11T05:29:30.076Z,1.70
2022-11-11T05:31:56.559Z,2.58
2022-11-11T05:34:23.106Z,3.80
2022-11-11T05:36:49.648Z,2.30
2022-11-11T05:39:16.224Z,1.38
2022-11-11T05:41:42.732Z,3.67
2022-11-11T05:44:09.346Z,2.50
2022-11-11T05:46:36.234Z,2.47
2022-11-11T05:49:15.211Z,1.85
2022-11-11T05:51:42.884Z,1.55
2022-11-11T05:54:09.415Z,2.28
2022-11-11T05:56:35.929Z,4.80
2022-11-11T05:59:02.461Z,2.90
2022-11-11T06:01:29.041Z,2.33
2022-11-11T06:03:55.574Z,2.25
2022-11-11T06:06:22.103Z,2.40
2022-11-11T06:08:48.677Z,3.05
2022-11-11T06:11:15.273Z,6.07
2022-11-11T06:13:41.877Z,2.38
2022-11-11T06:16:08.943Z,3.00
2022-11-11T06:18:35.805Z,1.38
2022-11-11T06:21:02.377Z,2.78
2022-11-11T06:23:29.637Z,3.53
2022-11-11T06:26:15.212Z,6.15
2022-11-11T06:28:45.969Z,2.42
2022-11-11T06:31:15.478Z,1.10
2022-11-11T06:33:42.236Z,2.33
2022-11-11T06:36:11.060Z,1.17
2022-11-11T06:38:37.855Z,1.80
2022-11-11T06:41:04.509Z,1.70
2022-11-11T06:43:31.438Z,1.92
2022-11-11T06:45:58.561Z,1.73
2022-11-11T06:48:26.597Z,1.20
2022-11-11T06:50:53.609Z,2.67
2022-11-11T06:53:22.201Z,2.22
2022-11-11T06:55:52.624Z,1.27
2022-11-11T06:58:20.695Z,0.73
2022-11-11T07:00:48.640Z,1.95
2022-11-11T07:03:22.681Z,1.92
2022-11-11T07:05:57.493Z,0.98
2022-11-11T07:10:52.474Z,1.08
2022-11-11T07:13:19.021Z,1.48
2022-11-11T07:15:45.858Z,1.25
2022-11-11T07:18:12.795Z,1.30
2022-11-11T07:20:39.635Z,1.48
2022-11-11T07:23:06.653Z,1.30
2022-11-11T07:25:33.661Z,1.25
2022-11-11T07:28:00.431Z,0.88
2022-11-11T07:30:27.347Z,1.17
2022-11-11T07:32:54.565Z,1.67
2022-11-11T07:35:22.169Z,1.02
2022-11-11T07:37:48.886Z,1.38
2022-11-11T07:40:18.127Z,1.52
2022-11-11T07:42:44.756Z,1.70
2022-11-11T07:45:13.361Z,1.83
2022-11-11T07:47:42.199Z,1.25
2022-11-11T07:50:09.099Z,0.93
2022-11-11T07:52:37.484Z,1.08
2022-11-11T07:55:08.337Z,1.60
2022-11-11T07:57:35.181Z,1.10
2022-11-11T08:00:01.957Z,3.05
2022-11-11T08:02:28.671Z,1.33
2022-11-11T08:04:56.083Z,1.67
2022-11-11T08:07:24.148Z,2.42
2022-11-11T08:09:51.702Z,2.13
2022-11-11T08:12:36.909Z,1.70
2022-11-11T08:15:06.983Z,1.05
2022-11-11T08:17:39.546Z,1.73
2022-11-11T08:20:10.548Z,1.38
2022-11-11T08:22:43.473Z,4.03
2022-11-11T08:25:17.305Z,1.30
2022-11-11T08:27:43.879Z,4.30
2022-11-11T08:33:26.384Z,1.65
2022-11-11T08:35:45.914Z,1.08
2022-11-11T08:38:13.810Z,1.20
2022-11-11T08:40:40.631Z,1.05
2022-11-11T08:43:07.176Z,0.70
2022-11-11T08:45:34.236Z,1.40
2022-11-11T08:48:00.797Z,1.90
2022-11-11T08:50:27.439Z,1.73
2022-11-11T08:52:54.145Z,1.30
2022-11-11T08:55:20.760Z,1.10
2022-11-11T08:57:47.425Z,1.75
2022-11-11T09:00:14.703Z,1.45
2022-11-11T09:02:41.382Z,2.35
2022-11-11T09:05:08.094Z,1.10
2022-11-11T09:07:34.630Z,0.88
2022-11-11T09:10:01.135Z,1.60
2022-11-11T09:12:27.695Z,1.60
2022-11-11T09:14:54.200Z,2.00
2022-11-11T09:17:20.745Z,2.47
2022-11-11T09:19:47.260Z,1.10
2022-11-11T09:22:13.796Z,2.45
2022-11-11T09:24:40.350Z,1.17
2022-11-11T09:27:06.875Z,3.17
2022-11-11T09:29:33.423Z,1.33
2022-11-11T09:32:00.013Z,1.05
2022-11-11T09:34:26.574Z,2.00
2022-11-11T09:36:53.078Z,1.10
2022-11-11T09:39:19.669Z,1.83
2022-11-11T09:42:07.016Z,2.92
2022-11-11T09:45:06.744Z,3.08
2022-11-11T09:47:44.763Z,3.08
2022-11-11T09:50:21.700Z,4.10
2022-11-11T09:53:01.401Z,4.28
2022-11-11T09:55:36.594Z,3.92
2022-11-11T09:58:27.740Z,3.08
2022-11-11T10:01:10.799Z,6.50
2022-11-11T10:03:47.532Z,3.50
2022-11-11T10:06:24.153Z,2.13
2022-11-11T10:09:04.751Z,3.97
2022-11-11T10:12:07.345Z,2.55
2022-11-11T10:14:40.158Z,1.67
2022-11-11T10:17:09.525Z,1.42
2022-11-11T10:20:02.839Z,1.77
2022-11-11T10:22:37.966Z,2.13
2022-11-11T10:25:13.642Z,5.57
2022-11-11T10:27:45.773Z,1.20
2022-11-11T10:30:24.690Z,2.25
2022-11-11T10:32:59.860Z,1.88
2022-11-11T10:35:29.468Z,1.47
2022-11-11T10:38:11.258Z,1.63
2022-11-11T10:40:46.561Z,3.15
2022-11-11T10:43:33.370Z,1.85
2022-11-11T10:46:25.114Z,1.42
2022-11-11T10:49:00.238Z,1.20
2022-11-11T10:51:43.338Z,2.13
2022-11-11T10:54:19.648Z,1.13
2022-11-11T10:56:56.091Z,1.65
2022-11-11T10:59:42.014Z,3.13
2022-11-11T11:02:23.396Z,1.27
2022-11-11T11:04:57.910Z,2.83
2022-11-11T11:07:50.118Z,2.78
2022-11-11T11:10:26.419Z,3.85
2022-11-11T11:13:08.592Z,1.75
2022-11-11T11:15:44.917Z,1.80
2022-11-11T11:18:13.804Z,1.17
2022-11-11T11:20:55.610Z,1.60
2022-11-11T11:23:44.762Z,2.60
2022-11-11T11:26:13.708Z,2.20
2022-11-11T11:28:53.255Z,7.05
2022-11-11T11:31:35.837Z,2.30
2022-11-11T11:34:02.500Z,1.60
2022-11-11T11:36:29.173Z,3.42
2022-11-11T11:38:55.708Z,2.78
2022-11-11T11:41:43.405Z,2.95
2022-11-11T11:44:25.709Z,2.15
2022-11-11T11:46:57.002Z,3.20
2022-11-11T11:52:01.614Z,2.90
2022-11-11T11:54:42.312Z,4.00
2022-11-11T11:57:33.811Z,3.10
2022-11-11T12:00:16.588Z,3.70
2022-11-11T12:03:07.993Z,3.37
2022-11-11T12:05:45.384Z,1.95
2022-11-11T12:11:03.977Z,4.20
2022-11-11T12:13:59.853Z,5.88
2022-11-11T12:16:44.452Z,3.40
2022-11-11T12:19:22.494Z,4.38
2022-11-11T12:22:10.947Z,3.47
2022-11-11T12:24:49.248Z,3.72
2022-11-11T12:27:33.508Z,3.97
2022-11-11T12:30:17.518Z,4.18
2022-11-11T12:33:06.319Z,5.20
2022-11-11T12:36:15.275Z,2.40
2022-11-11T12:38:58.514Z,1.98
2022-11-11T12:41:27.676Z,4.45
2022-11-11T12:44:04.152Z,3.40
2022-11-11T12:46:42.748Z,4.75
2022-11-11T12:49:35.177Z,2.00
2022-11-11T12:52:29.061Z,2.00
2022-11-11T12:57:49.727Z,3.55
2022-11-11T13:00:24.237Z,3.22
2022-11-11T13:03:09.485Z,2.10
2022-11-11T13:06:22.422Z,3.65
2022-11-11T13:09:18.140Z,5.18
2022-11-11T13:12:20.139Z,1.73
2022-11-11T13:15:23.334Z,1.95
2022-11-11T13:17:51.221Z,3.83
2022-11-11T13:20:48.599Z,1.55
2022-11-11T13:23:15.255Z,4.20
2022-11-11T13:25:52.457Z,3.03
2022-11-11T13:28:28.263Z,2.50
2022-11-11T13:31:07.033Z,2.60
2022-11-11T13:33:44.332Z,1.70
2022-11-11T13:36:15.680Z,2.30
2022-11-11T13:38:49.036Z,1.30
2022-11-11T13:41:28.714Z,1.60
2022-11-11T13:44:07.774Z,2.53
2022-11-11T13:46:49.811Z,2.28
2022-11-11T13:49:29.002Z,1.42
2022-11-11T13:52:04.240Z,2.45
2022-11-11T13:54:35.495Z,2.03
2022-11-11T13:57:07.667Z,1.73
2022-11-11T13:59:39.922Z,4.93
2022-11-11T14:02:23.113Z,5.10
2022-11-11T14:05:16.601Z,1.58
2022-11-11T14:07:49.276Z,2.38
2022-11-11T14:10:18.605Z,1.95
2022-11-11T14:12:54.003Z,2.53
2022-11-11T14:15:44.960Z,3.10
2022-11-11T14:18:20.677Z,2.05
2022-11-11T14:20:55.751Z,3.20
2022-11-11T14:23:35.811Z,4.07
2022-11-11T14:26:14.091Z,2.25
2022-11-11T14:28:54.339Z,2.28
2022-11-11T14:31:20.780Z,2.83
2022-11-11T14:34:05.353Z,2.05
2022-11-11T14:36:34.586Z,2.33
2022-11-11T14:39:16.293Z,4.10
2022-11-11T14:41:49.042Z,3.97
2022-11-11T14:44:27.835Z,2.83
2022-11-11T14:47:03.694Z,1.42
2022-11-11T14:49:55.502Z,2.90
2022-11-11T14:52:44.642Z,3.17
2022-11-11T14:55:39.128Z,4.20
2022-11-11T14:58:08.439Z,2.80
2022-11-11T15:00:53.337Z,4.70
2022-11-11T15:03:32.052Z,4.70
2022-11-11T15:06:04.504Z,4.70
2022-11-11T15:08:48.303Z,6.13
2022-11-11T15:13:59.551Z,3.00
2022-11-11T15:16:59.969Z,4.35
2022-11-11T15:20:04.362Z,4.13
2022-11-11T15:22:57.402Z,4.05
2022-11-11T15:25:41.904Z,3.85
2022-11-11T15:28:33.933Z,4.80
2022-11-11T15:31:00.426Z,2.40
2022-11-11T15:33:34.980Z,5.78
2022-11-11T15:36:11.250Z,4.32
2022-11-11T15:38:38.835Z,2.78
2022-11-11T15:41:05.670Z,3.70
2022-11-11T15:43:35.688Z,4.07
2022-11-11T15:46:04.986Z,2.17
2022-11-11T15:48:43.239Z,3.65
2022-11-11T15:51:30.070Z,1.85
2022-11-11T15:54:15.324Z,5.00
2022-11-11T15:56:41.879Z,2.95
2022-11-11T15:59:38.059Z,4.88
2022-11-11T16:02:16.973Z,3.17
2022-11-11T16:04:55.406Z,3.67
2022-11-11T16:07:25.834Z,4.78
2022-11-11T16:09:54.934Z,5.70
2022-11-11T16:12:29.993Z,3.10
2022-11-11T16:15:00.921Z,7.10
2022-11-11T16:17:32.366Z,4.38
2022-11-11T16:19:59.456Z,5.95
2022-11-11T16:22:35.391Z,5.57
2022-11-11T16:25:05.124Z,7.47
2022-11-11T16:27:34.018Z,4.15
2022-11-11T16:30:28.576Z,7.82
2022-11-11T16:32:57.627Z,13.25
2022-11-11T16:35:31.885Z,6.68
2022-11-11T16:37:59.978Z,2.60
2022-11-11T16:40:35.447Z,4.93
2022-11-11T16:43:22.956Z,3.58
2022-11-11T16:45:57.397Z,3.72
2022-11-11T16:48:39.614Z,3.80
2022-11-11T16:51:36.758Z,4.05
2022-11-11T16:54:20.393Z,4.22
2022-11-11T16:56:53.883Z,5.93
2022-11-11T16:59:41.019Z,3.67
2022-11-11T17:02:18.422Z,3.55
2022-11-11T17:04:58.217Z,6.55
2022-11-11T17:07:39.511Z,3.75
2022-11-11T17:10:08.883Z,6.85
2022-11-11T17:12:40.233Z,5.70
2022-11-11T17:15:13.636Z,6.93
2022-11-11T17:17:42.914Z,5.80
2022-11-11T17:20:16.921Z,6.57
2022-11-11T17:22:56.024Z,5.40
2022-11-11T17:25:23.051Z,4.90
2022-11-11T17:27:49.753Z,4.10
2022-11-11T17:30:16.513Z,4.03
2022-11-11T17:32:43.185Z,4.43
2022-11-11T17:35:11.706Z,3.45
2022-11-11T17:37:39.317Z,11.68
2022-11-11T17:40:07.126Z,3.95
2022-11-11T17:42:34.697Z,1.92
2022-11-11T17:45:01.468Z,2.08
2022-11-11T17:47:28.345Z,7.78
2022-11-11T17:49:57.279Z,14.52
2022-11-11T17:52:24.593Z,6.18
2022-11-11T17:54:51.359Z,6.93
2022-11-11T17:57:18.432Z,5.10
2022-11-11T17:59:45.041Z,4.25
2022-11-11T18:02:13.196Z,4.72
2022-11-11T18:04:41.497Z,4.80
2022-11-11T18:07:08.579Z,4.40
2022-11-11T18:09:35.115Z,6.38
2022-11-11T18:12:01.676Z,4.93
2022-11-11T18:14:28.251Z,10.85
2022-11-11T18:16:54.797Z,5.50
2022-11-11T18:19:21.389Z,4.95
2022-11-11T18:21:48.003Z,5.60
2022-11-11T18:24:14.693Z,6.75
2022-11-11T18:26:41.256Z,6.93
2022-11-11T18:29:08.800Z,11.18
2022-11-11T18:31:35.642Z,9.25
2022-11-11T18:34:02.296Z,10.60
2022-11-11T18:36:29.040Z,7.28
2022-11-11T18:38:56.568Z,7.00
2022-11-11T18:41:24.602Z,7.50
2022-11-11T18:43:54.090Z,7.50
2022-11-11T18:46:26.085Z,6.07
2022-11-11T18:48:54.616Z,6.80
2022-11-11T18:51:21.763Z,8.45
2022-11-11T18:53:48.327Z,5.65
2022-11-11T18:56:18.405Z,6.47
2022-11-11T18:58:51.713Z,6.97
2022-11-11T19:01:24.023Z,5.85
2022-11-11T19:03:56.088Z,7.57
2022-11-11T19:06:22.680Z,6.28
2022-11-11T19:08:53.998Z,4.22
2022-11-11T19:11:20.880Z,7.25
2022-11-11T19:13:47.791Z,7.35
2022-11-11T19:16:19.721Z,4.85
2022-11-11T19:18:46.234Z,5.65
2022-11-11T19:21:16.270Z,5.40
2022-11-11T19:23:44.977Z,8.68
2022-11-11T19:26:12.010Z,6.97
2022-11-11T19:28:39.182Z,5.68
2022-11-11T19:31:08.352Z,4.22
2022-11-11T19:33:36.927Z,5.78
2022-11-11T19:36:07.104Z,5.90
2022-11-11T19:38:33.835Z,7.65
2022-11-11T19:41:07.361Z,7.57
2022-11-11T19:43:34.671Z,6.43
2022-11-11T19:46:02.128Z,5.93
2022-11-11T19:48:28.710Z,5.72
2022-11-11T19:50:55.394Z,3.75
2022-11-11T19:53:22.029Z,8.48
2022-11-11T19:56:05.918Z,4.93
2022-11-11T19:58:32.832Z,5.57
2022-11-11T20:01:12.815Z,3.50
2022-11-11T20:03:40.545Z,5.55
2022-11-11T20:06:19.247Z,3.55
2022-11-11T20:08:45.797Z,2.60
2022-11-11T20:11:12.391Z,4.65
2022-11-11T20:13:42.531Z,3.40
2022-11-11T20:16:10.068Z,2.58
2022-11-11T20:18:36.719Z,3.75
2022-11-11T20:21:05.281Z,4.95
2022-11-11T20:23:35.314Z,4.43
2022-11-11T20:26:05.206Z,5.35
2022-11-11T20:28:31.996Z,5.55
2022-11-11T20:30:58.575Z,5.50
2022-11-11T20:33:25.597Z,4.45
2022-11-11T20:35:52.380Z,7.00
2022-11-11T20:38:18.926Z,3.50
2022-11-11T20:40:45.427Z,5.70
2022-11-11T20:43:11.953Z,4.60
2022-11-11T20:45:38.529Z,3.50
2022-11-11T20:48:08.641Z,5.47
2022-11-11T20:50:35.425Z,3.08
2022-11-11T20:53:01.966Z,2.30
2022-11-11T20:55:28.508Z,2.97
2022-11-11T20:57:55.070Z,4.78
2022-11-11T21:00:21.643Z,5.72
2022-11-11T21:02:48.177Z,5.70
2022-11-11T21:05:14.809Z,7.63
2022-11-11T21:07:41.382Z,6.07
2022-11-11T21:10:08.043Z,6.97
2022-11-11T21:12:34.894Z,6.40
2022-11-11T21:15:01.464Z,4.07
2022-11-11T21:17:28.044Z,7.80
2022-11-11T21:19:54.572Z,5.97
2022-11-11T21:22:21.236Z,5.05
2022-11-11T21:24:47.753Z,3.25
2022-11-11T21:27:15.425Z,4.10
2022-11-11T21:29:41.951Z,3.58
2022-11-11T21:32:08.570Z,7.53
2022-11-11T21:34:35.079Z,5.05
2022-11-11T21:37:01.621Z,5.82
2022-11-11T21:39:28.118Z,4.78
2022-11-11T21:41:54.734Z,6.38
2022-11-11T21:44:21.254Z,7.25
2022-11-11T21:46:47.775Z,4.93
2022-11-11T21:49:14.341Z,3.33
2022-11-11T21:51:40.972Z,4.10
2022-11-11T21:54:09.805Z,3.28
2022-11-11T21:56:37.893Z,2.90
2022-11-11T21:59:06.172Z,2.53
2022-11-11T22:01:35.775Z,2.72
2022-11-11T22:04:05.408Z,3.90
2022-11-11T22:06:32.402Z,2.70
2022-11-11T22:08:59.805Z,2.40
2022-11-11T22:11:31.940Z,2.65
2022-11-11T22:14:01.104Z,3.97
2022-11-11T22:16:31.000Z,2.20
2022-11-11T22:19:00.604Z,4.72
2022-11-11T22:21:28.821Z,4.38
2022-11-11T22:23:58.115Z,2.75
2022-11-11T22:26:27.019Z,2.78
2022-11-11T22:28:54.919Z,3.58
2022-11-11T22:31:24.563Z,2.13
2022-11-11T22:34:02.604Z,3.88
2022-11-11T22:36:31.565Z,1.95
2022-11-11T22:38:59.255Z,3.58
2022-11-11T22:41:32.215Z,4.35
2022-11-11T22:44:00.506Z,2.85
2022-11-11T22:46:28.071Z,5.22
2022-11-11T22:48:57.040Z,2.90
2022-11-11T22:51:25.013Z,2.10
2022-11-11T22:54:06.147Z,3.92
2022-11-11T22:56:34.531Z,1.83
2022-11-11T22:59:04.029Z,4.43
2022-11-11T23:01:32.506Z,2.55
2022-11-11T23:04:01.371Z,2.40
2022-11-11T23:06:35.661Z,2.10
2022-11-11T23:09:04.113Z,1.27
2022-11-11T23:11:32.318Z,1.25
2022-11-11T23:14:07.263Z,1.25
2022-11-11T23:16:34.249Z,1.85
2022-11-11T23:19:04.229Z,1.70
2022-11-11T23:21:31.184Z,2.45
2022-11-11T23:23:58.833Z,5.40
2022-11-11T23:26:33.515Z,3.95
2022-11-11T23:29:00.756Z,3.85
2022-11-11T23:31:29.851Z,2.35
2022-11-11T23:33:59.341Z,2.53
2022-11-11T23:36:27.723Z,2.13
2022-11-11T23:38:55.012Z,5.85
2022-11-11T23:41:21.755Z,3.10
2022-11-11T23:43:48.395Z,3.15
2022-11-11T23:46:15.052Z,4.32
2022-11-11T23:48:41.959Z,4.38
2022-11-11T23:51:08.531Z,1.92
2022-11-11T23:53:35.232Z,2.75
2022-11-11T23:56:02.482Z,3.55
2022-11-11T23:58:29.706Z,6.28
